sensor_id;sensor_type;location;lat;lon;timestamp;temperature;humidity
9971;DHT22;5026;51.494;11.974;2023-06-26T00:01:31;21.20;99.90
9971;DHT22;5026;51.494;11.974;2023-06-26T00:03:58;21.10;99.90
9971;DHT22;5026;51.494;11.974;2023-06-26T00:06:27;21.10;99.90
9971;DHT22;5026;51.494;11.974;2023-06-26T00:08:55;21.00;99.90
9971;DHT22;5026;51.494;11.974;2023-06-26T00:11:24;20.90;99.90
9971;DHT22;5026;51.494;11.974;2023-06-26T00:13:52;20.80;99.90
9971;DHT22;5026;51.494;11.974;2023-06-26T00:16:19;20.80;99.90
9971;DHT22;5026;51.494;11.974;2023-06-26T00:18:46;20.70;99.90
9971;DHT22;5026;51.494;11.974;2023-06-26T00:21:13;20.60;99.90
9971;DHT22;5026;51.494;11.974;2023-06-26T00:23:40;20.60;99.90
9971;DHT22;5026;51.494;11.974;2023-06-26T00:26:08;20.50;99.90
9971;DHT22;5026;51.494;11.974;2023-06-26T00:31:03;20.30;99.90
9971;DHT22;5026;51.494;11.974;2023-06-26T00:33:30;20.30;99.90
9971;DHT22;5026;51.494;11.974;2023-06-26T00:35:57;20.30;99.90
9971;DHT22;5026;51.494;11.974;2023-06-26T00:38:24;20.30;99.90
9971;DHT22;5026;51.494;11.974;2023-06-26T00:40:51;20.30;99.90
9971;DHT22;5026;51.494;11.974;2023-06-26T00:43:19;20.30;99.90
9971;DHT22;5026;51.494;11.974;2023-06-26T00:45:46;20.20;99.90
9971;DHT22;5026;51.494;11.974;2023-06-26T00:48:13;20.10;99.90
9971;DHT22;5026;51.494;11.974;2023-06-26T00:50:41;20.10;99.90
9971;DHT22;5026;51.494;11.974;2023-06-26T00:53:09;20.10;99.90
9971;DHT22;5026;51.494;11.974;2023-06-26T00:55:37;20.10;99.90
9971;DHT22;5026;51.494;11.974;2023-06-26T00:58:05;20.10;99.90
9971;DHT22;5026;51.494;11.974;2023-06-26T01:00:33;20.10;99.90
9971;DHT22;5026;51.494;11.974;2023-06-26T01:03:00;20.10;99.90
9971;DHT22;5026;51.494;11.974;2023-06-26T01:07:54;20.00;99.90
9971;DHT22;5026;51.494;11.974;2023-06-26T01:10:24;20.00;99.90
9971;DHT22;5026;51.494;11.974;2023-06-26T01:15:20;19.90;99.90
9971;DHT22;5026;51.494;11.974;2023-06-26T01:17:49;19.90;99.90
9971;DHT22;5026;51.494;11.974;2023-06-26T01:20:17;19.80;99.90
9971;DHT22;5026;51.494;11.974;2023-06-26T01:22:51;19.70;99.90
9971;DHT22;5026;51.494;11.974;2023-06-26T01:25:31;19.70;99.90
9971;DHT22;5026;51.494;11.974;2023-06-26T01:28:06;19.70;99.90
9971;DHT22;5026;51.494;11.974;2023-06-26T01:30:34;19.70;99.90
9971;DHT22;5026;51.494;11.974;2023-06-26T01:33:02;19.60;99.90
9971;DHT22;5026;51.494;11.974;2023-06-26T01:35:30;19.70;99.90
9971;DHT22;5026;51.494;11.974;2023-06-26T01:38:11;19.60;99.90
9971;DHT22;5026;51.494;11.974;2023-06-26T01:40:38;19.60;99.90
9971;DHT22;5026;51.494;11.974;2023-06-26T01:43:10;19.50;99.90
9971;DHT22;5026;51.494;11.974;2023-06-26T01:45:42;19.50;99.90
9971;DHT22;5026;51.494;11.974;2023-06-26T01:48:12;19.50;99.90
9971;DHT22;5026;51.494;11.974;2023-06-26T07:41:51;50.20;43.40
9971;DHT22;5026;51.494;11.974;2023-06-26T07:44:18;49.40;43.00
9971;DHT22;5026;51.494;11.974;2023-06-26T07:46:48;48.60;43.70
9971;DHT22;5026;51.494;11.974;2023-06-26T07:49:15;49.50;43.80
9971;DHT22;5026;51.494;11.974;2023-06-26T07:51:42;49.50;43.70
9971;DHT22;5026;51.494;11.974;2023-06-26T07:54:09;49.20;43.10
9971;DHT22;5026;51.494;11.974;2023-06-26T07:56:54;48.30;43.50
9971;DHT22;5026;51.494;11.974;2023-06-26T07:59:21;47.50;43.20
9971;DHT22;5026;51.494;11.974;2023-06-26T08:01:49;47.20;43.50
9971;DHT22;5026;51.494;11.974;2023-06-26T08:04:18;48.60;43.20
9971;DHT22;5026;51.494;11.974;2023-06-26T08:09:16;49.70;42.30
9971;DHT22;5026;51.494;11.974;2023-06-26T08:11:43;50.30;42.10
9971;DHT22;5026;51.494;11.974;2023-06-26T08:14:12;49.30;41.70
9971;DHT22;5026;51.494;11.974;2023-06-26T08:16:39;49.50;42.00
9971;DHT22;5026;51.494;11.974;2023-06-26T08:19:06;50.30;41.80
9971;DHT22;5026;51.494;11.974;2023-06-26T08:21:33;48.60;41.50
9971;DHT22;5026;51.494;11.974;2023-06-26T08:24:01;49.50;41.60
9971;DHT22;5026;51.494;11.974;2023-06-26T08:26:28;50.40;41.30
9971;DHT22;5026;51.494;11.974;2023-06-26T08:28:55;50.20;41.00
9971;DHT22;5026;51.494;11.974;2023-06-26T08:31:23;49.50;41.20
9971;DHT22;5026;51.494;11.974;2023-06-26T08:33:50;48.20;41.60
9971;DHT22;5026;51.494;11.974;2023-06-26T08:38:44;47.10;41.90
9971;DHT22;5026;51.494;11.974;2023-06-26T08:41:11;46.40;42.90
9971;DHT22;5026;51.494;11.974;2023-06-26T08:43:38;47.80;42.80
9971;DHT22;5026;51.494;11.974;2023-06-26T08:46:05;48.90;42.00
9971;DHT22;5026;51.494;11.974;2023-06-26T08:48:34;48.60;41.20
9971;DHT22;5026;51.494;11.974;2023-06-26T08:51:08;45.20;42.20
9971;DHT22;5026;51.494;11.974;2023-06-26T08:53:43;44.20;42.80
9971;DHT22;5026;51.494;11.974;2023-06-26T08:56:13;43.80;43.50
9971;DHT22;5026;51.494;11.974;2023-06-26T09:01:09;43.70;44.40
9971;DHT22;5026;51.494;11.974;2023-06-26T09:03:38;45.10;43.40
9971;DHT22;5026;51.494;11.974;2023-06-26T09:06:07;45.70;42.40
9971;DHT22;5026;51.494;11.974;2023-06-26T09:08:34;45.30;42.40
9971;DHT22;5026;51.494;11.974;2023-06-26T09:11:03;45.80;42.40
9971;DHT22;5026;51.494;11.974;2023-06-26T09:13:30;46.00;41.90
9971;DHT22;5026;51.494;11.974;2023-06-26T09:15:57;46.90;41.50
9971;DHT22;5026;51.494;11.974;2023-06-26T09:18:24;46.40;41.50
9971;DHT22;5026;51.494;11.974;2023-06-26T09:20:54;45.80;41.40
9971;DHT22;5026;51.494;11.974;2023-06-26T09:23:21;44.40;41.80
9971;DHT22;5026;51.494;11.974;2023-06-26T09:25:49;44.50;42.10
9971;DHT22;5026;51.494;11.974;2023-06-26T09:28:17;43.80;42.60
9971;DHT22;5026;51.494;11.974;2023-06-26T09:30:50;45.00;41.90
9971;DHT22;5026;51.494;11.974;2023-06-26T09:33:21;45.80;41.60
9971;DHT22;5026;51.494;11.974;2023-06-26T09:35:48;46.70;40.90
9971;DHT22;5026;51.494;11.974;2023-06-26T09:38:16;47.40;40.40
9971;DHT22;5026;51.494;11.974;2023-06-26T09:40:43;47.70;40.00
9971;DHT22;5026;51.494;11.974;2023-06-26T09:43:13;47.60;40.10
9971;DHT22;5026;51.494;11.974;2023-06-26T09:45:40;47.10;39.60
9971;DHT22;5026;51.494;11.974;2023-06-26T09:48:07;46.60;40.00
9971;DHT22;5026;51.494;11.974;2023-06-26T09:50:35;45.30;40.40
9971;DHT22;5026;51.494;11.974;2023-06-26T09:53:07;43.90;41.50
9971;DHT22;5026;51.494;11.974;2023-06-26T09:55:37;43.40;41.30
9971;DHT22;5026;51.494;11.974;2023-06-26T09:58:06;43.70;41.10
9971;DHT22;5026;51.494;11.974;2023-06-26T10:00:33;43.50;41.00
9971;DHT22;5026;51.494;11.974;2023-06-26T10:03:00;43.20;40.40
9971;DHT22;5026;51.494;11.974;2023-06-26T10:05:27;42.60;40.90
9971;DHT22;5026;51.494;11.974;2023-06-26T10:07:55;41.70;41.10
9971;DHT22;5026;51.494;11.974;2023-06-26T10:10:23;40.30;41.60
9971;DHT22;5026;51.494;11.974;2023-06-26T10:12:58;40.00;42.60
9971;DHT22;5026;51.494;11.974;2023-06-26T10:15:27;39.60;43.00
9971;DHT22;5026;51.494;11.974;2023-06-26T10:17:56;39.40;43.20
9971;DHT22;5026;51.494;11.974;2023-06-26T10:20:24;38.90;42.40
9971;DHT22;5026;51.494;11.974;2023-06-26T10:22:53;38.20;42.90
9971;DHT22;5026;51.494;11.974;2023-06-26T10:25:22;37.50;43.80
9971;DHT22;5026;51.494;11.974;2023-06-26T10:27:55;37.10;44.30
9971;DHT22;5026;51.494;11.974;2023-06-26T10:30:26;36.70;44.10
9971;DHT22;5026;51.494;11.974;2023-06-26T10:32:55;36.60;44.40
9971;DHT22;5026;51.494;11.974;2023-06-26T10:35:23;36.50;45.10
9971;DHT22;5026;51.494;11.974;2023-06-26T10:37:51;36.10;45.10
9971;DHT22;5026;51.494;11.974;2023-06-26T10:40:22;36.20;45.20
9971;DHT22;5026;51.494;11.974;2023-06-26T10:43:05;35.60;45.10
9971;DHT22;5026;51.494;11.974;2023-06-26T10:45:33;35.30;45.80
9971;DHT22;5026;51.494;11.974;2023-06-26T10:48:00;35.30;45.50
9971;DHT22;5026;51.494;11.974;2023-06-26T10:50:30;35.20;45.10
9971;DHT22;5026;51.494;11.974;2023-06-26T10:53:10;35.00;44.60
9971;DHT22;5026;51.494;11.974;2023-06-26T10:55:42;35.10;45.30
9971;DHT22;5026;51.494;11.974;2023-06-26T10:58:31;35.20;45.70
9971;DHT22;5026;51.494;11.974;2023-06-26T11:01:14;35.10;46.00
9971;DHT22;5026;51.494;11.974;2023-06-26T11:03:43;35.00;45.90
9971;DHT22;5026;51.494;11.974;2023-06-26T11:06:11;35.00;45.70
9971;DHT22;5026;51.494;11.974;2023-06-26T11:08:44;34.50;45.60
9971;DHT22;5026;51.494;11.974;2023-06-26T11:11:11;34.70;45.70
9971;DHT22;5026;51.494;11.974;2023-06-26T11:13:40;34.60;46.00
9971;DHT22;5026;51.494;11.974;2023-06-26T11:16:07;34.60;46.20
9971;DHT22;5026;51.494;11.974;2023-06-26T11:18:34;34.50;45.60
9971;DHT22;5026;51.494;11.974;2023-06-26T11:21:05;34.50;44.90
9971;DHT22;5026;51.494;11.974;2023-06-26T11:23:33;34.20;46.00
9971;DHT22;5026;51.494;11.974;2023-06-26T11:26:13;33.80;45.70
9971;DHT22;5026;51.494;11.974;2023-06-26T11:28:47;33.80;46.40
9971;DHT22;5026;51.494;11.974;2023-06-26T11:31:25;33.70;46.70
9971;DHT22;5026;51.494;11.974;2023-06-26T11:33:53;33.70;47.10
9971;DHT22;5026;51.494;11.974;2023-06-26T11:36:23;33.70;47.40
9971;DHT22;5026;51.494;11.974;2023-06-26T11:38:53;33.70;47.40
9971;DHT22;5026;51.494;11.974;2023-06-26T11:41:20;33.70;47.60
9971;DHT22;5026;51.494;11.974;2023-06-26T11:43:49;33.80;46.90
9971;DHT22;5026;51.494;11.974;2023-06-26T11:46:19;34.00;47.10
9971;DHT22;5026;51.494;11.974;2023-06-26T11:48:46;33.90;45.90
9971;DHT22;5026;51.494;11.974;2023-06-26T11:51:13;33.80;46.60
9971;DHT22;5026;51.494;11.974;2023-06-26T11:53:41;33.60;46.10
9971;DHT22;5026;51.494;11.974;2023-06-26T11:56:09;33.50;46.80
9971;DHT22;5026;51.494;11.974;2023-06-26T11:58:37;33.40;46.10
9971;DHT22;5026;51.494;11.974;2023-06-26T12:01:21;33.30;46.60
9971;DHT22;5026;51.494;11.974;2023-06-26T12:03:49;33.50;46.90
9971;DHT22;5026;51.494;11.974;2023-06-26T12:06:16;33.70;47.20
9971;DHT22;5026;51.494;11.974;2023-06-26T12:08:44;33.80;46.60
9971;DHT22;5026;51.494;11.974;2023-06-26T12:11:12;33.90;46.10
9971;DHT22;5026;51.494;11.974;2023-06-26T12:13:39;33.90;47.00
9971;DHT22;5026;51.494;11.974;2023-06-26T12:16:06;33.80;46.90
9971;DHT22;5026;51.494;11.974;2023-06-26T12:18:35;33.90;46.70
9971;DHT22;5026;51.494;11.974;2023-06-26T12:21:02;33.90;46.20
9971;DHT22;5026;51.494;11.974;2023-06-26T12:23:32;34.00;46.80
9971;DHT22;5026;51.494;11.974;2023-06-26T12:26:16;34.00;46.20
9971;DHT22;5026;51.494;11.974;2023-06-26T12:28:44;34.00;47.40
9971;DHT22;5026;51.494;11.974;2023-06-26T12:31:15;33.90;47.60
9971;DHT22;5026;51.494;11.974;2023-06-26T12:33:44;33.90;47.30
9971;DHT22;5026;51.494;11.974;2023-06-26T12:36:11;34.00;47.80
9971;DHT22;5026;51.494;11.974;2023-06-26T12:38:39;33.90;47.70
9971;DHT22;5026;51.494;11.974;2023-06-26T12:41:12;33.90;47.80
9971;DHT22;5026;51.494;11.974;2023-06-26T12:43:39;34.00;47.80
9971;DHT22;5026;51.494;11.974;2023-06-26T12:46:06;34.00;47.50
9971;DHT22;5026;51.494;11.974;2023-06-26T12:48:37;34.20;47.00
9971;DHT22;5026;51.494;11.974;2023-06-26T12:51:10;34.20;47.30
9971;DHT22;5026;51.494;11.974;2023-06-26T12:56:05;34.40;46.00
9971;DHT22;5026;51.494;11.974;2023-06-26T12:58:33;34.20;45.90
9971;DHT22;5026;51.494;11.974;2023-06-26T13:01:00;34.30;45.90
9971;DHT22;5026;51.494;11.974;2023-06-26T13:08:23;34.90;45.70
9971;DHT22;5026;51.494;11.974;2023-06-26T13:10:50;34.90;45.40
9971;DHT22;5026;51.494;11.974;2023-06-26T13:13:17;34.90;44.90
9971;DHT22;5026;51.494;11.974;2023-06-26T13:15:44;34.60;45.30
9971;DHT22;5026;51.494;11.974;2023-06-26T13:18:11;34.80;45.90
9971;DHT22;5026;51.494;11.974;2023-06-26T13:20:38;34.80;45.40
9971;DHT22;5026;51.494;11.974;2023-06-26T13:23:05;34.80;45.00
9971;DHT22;5026;51.494;11.974;2023-06-26T13:25:34;34.80;45.20
9971;DHT22;5026;51.494;11.974;2023-06-26T13:28:01;34.70;45.50
9971;DHT22;5026;51.494;11.974;2023-06-26T13:32:55;33.20;53.10
9971;DHT22;5026;51.494;11.974;2023-06-26T13:37:50;30.20;62.40
9971;DHT22;5026;51.494;11.974;2023-06-26T13:40:17;30.00;64.70
9971;DHT22;5026;51.494;11.974;2023-06-26T13:42:45;29.90;67.10
9971;DHT22;5026;51.494;11.974;2023-06-26T13:45:12;29.40;69.70
9971;DHT22;5026;51.494;11.974;2023-06-26T13:47:39;28.90;71.80
9971;DHT22;5026;51.494;11.974;2023-06-26T13:50:08;28.60;73.90
9971;DHT22;5026;51.494;11.974;2023-06-26T13:55:02;28.40;75.50
9971;DHT22;5026;51.494;11.974;2023-06-26T13:57:31;28.60;75.40
9971;DHT22;5026;51.494;11.974;2023-06-26T13:59:59;28.60;74.30
9971;DHT22;5026;51.494;11.974;2023-06-26T14:02:28;28.60;74.20
9971;DHT22;5026;51.494;11.974;2023-06-26T14:04:55;28.60;74.80
9971;DHT22;5026;51.494;11.974;2023-06-26T14:07:22;28.40;74.50
9971;DHT22;5026;51.494;11.974;2023-06-26T14:09:50;28.50;75.20
9971;DHT22;5026;51.494;11.974;2023-06-26T14:12:17;28.60;75.20
9971;DHT22;5026;51.494;11.974;2023-06-26T14:14:44;28.70;75.30
9971;DHT22;5026;51.494;11.974;2023-06-26T14:17:12;28.60;75.80
9971;DHT22;5026;51.494;11.974;2023-06-26T14:22:08;28.20;76.30
9971;DHT22;5026;51.494;11.974;2023-06-26T14:27:03;28.40;76.40
9971;DHT22;5026;51.494;11.974;2023-06-26T14:31:57;27.70;78.10
9971;DHT22;5026;51.494;11.974;2023-06-26T14:34:26;27.60;79.00
9971;DHT22;5026;51.494;11.974;2023-06-26T14:36:53;27.60;79.00
9971;DHT22;5026;51.494;11.974;2023-06-26T14:39:20;27.90;79.60
9971;DHT22;5026;51.494;11.974;2023-06-26T14:44:14;28.30;79.50
9971;DHT22;5026;51.494;11.974;2023-06-26T14:46:41;28.20;79.60
9971;DHT22;5026;51.494;11.974;2023-06-26T14:49:08;28.40;79.80
9971;DHT22;5026;51.494;11.974;2023-06-26T14:51:37;28.50;79.90
9971;DHT22;5026;51.494;11.974;2023-06-26T14:54:05;28.50;80.40
9971;DHT22;5026;51.494;11.974;2023-06-26T14:56:32;28.10;80.90
9971;DHT22;5026;51.494;11.974;2023-06-26T14:58:59;27.50;81.70
9971;DHT22;5026;51.494;11.974;2023-06-26T15:01:26;27.60;82.00
9971;DHT22;5026;51.494;11.974;2023-06-26T15:06:20;27.70;82.80
9971;DHT22;5026;51.494;11.974;2023-06-26T15:08:49;27.70;82.70
9971;DHT22;5026;51.494;11.974;2023-06-26T15:11:17;27.40;82.80
9971;DHT22;5026;51.494;11.974;2023-06-26T15:16:12;27.20;84.30
9971;DHT22;5026;51.494;11.974;2023-06-26T15:18:40;27.10;85.00
9971;DHT22;5026;51.494;11.974;2023-06-26T15:21:07;27.20;85.00
9971;DHT22;5026;51.494;11.974;2023-06-26T15:26:03;27.20;85.30
9971;DHT22;5026;51.494;11.974;2023-06-26T15:28:30;27.00;85.50
9971;DHT22;5026;51.494;11.974;2023-06-26T15:30:58;27.00;85.90
9971;DHT22;5026;51.494;11.974;2023-06-26T15:33:26;26.90;86.80
9971;DHT22;5026;51.494;11.974;2023-06-26T15:35:53;26.80;86.70
9971;DHT22;5026;51.494;11.974;2023-06-26T15:40:47;27.00;86.40
9971;DHT22;5026;51.494;11.974;2023-06-26T15:43:16;27.30;86.20
9971;DHT22;5026;51.494;11.974;2023-06-26T15:45:43;27.20;86.00
9971;DHT22;5026;51.494;11.974;2023-06-26T15:48:10;26.90;86.50
9971;DHT22;5026;51.494;11.974;2023-06-26T15:50:37;26.70;86.80
9971;DHT22;5026;51.494;11.974;2023-06-26T15:53:04;26.80;87.20
9971;DHT22;5026;51.494;11.974;2023-06-26T15:55:32;27.00;87.50
9971;DHT22;5026;51.494;11.974;2023-06-26T15:57:58;26.70;87.70
9971;DHT22;5026;51.494;11.974;2023-06-26T16:00:27;26.50;88.50
9971;DHT22;5026;51.494;11.974;2023-06-26T16:02:54;26.50;89.10
9971;DHT22;5026;51.494;11.974;2023-06-26T16:05:21;26.40;89.60
9971;DHT22;5026;51.494;11.974;2023-06-26T16:07:48;26.50;90.00
9971;DHT22;5026;51.494;11.974;2023-06-26T16:10:16;26.30;90.40
9971;DHT22;5026;51.494;11.974;2023-06-26T16:12:43;26.70;90.40
9971;DHT22;5026;51.494;11.974;2023-06-26T16:15:10;26.80;90.40
9971;DHT22;5026;51.494;11.974;2023-06-26T16:17:38;26.80;90.10
9971;DHT22;5026;51.494;11.974;2023-06-26T16:20:06;26.80;89.60
9971;DHT22;5026;51.494;11.974;2023-06-26T16:22:33;27.00;89.20
9971;DHT22;5026;51.494;11.974;2023-06-26T16:25:00;26.90;88.30
9971;DHT22;5026;51.494;11.974;2023-06-26T16:27:27;27.00;87.10
9971;DHT22;5026;51.494;11.974;2023-06-26T16:29:54;26.60;84.60
9971;DHT22;5026;51.494;11.974;2023-06-26T16:32:23;26.50;85.30
9971;DHT22;5026;51.494;11.974;2023-06-26T16:34:51;26.50;84.80
9971;DHT22;5026;51.494;11.974;2023-06-26T16:37:18;26.50;84.10
9971;DHT22;5026;51.494;11.974;2023-06-26T16:42:12;26.20;82.20
9971;DHT22;5026;51.494;11.974;2023-06-26T16:44:39;26.10;81.80
9971;DHT22;5026;51.494;11.974;2023-06-26T16:47:06;26.10;81.70
9971;DHT22;5026;51.494;11.974;2023-06-26T16:49:34;26.20;81.80
9971;DHT22;5026;51.494;11.974;2023-06-26T16:52:03;26.20;81.70
9971;DHT22;5026;51.494;11.974;2023-06-26T16:54:30;26.30;81.70
9971;DHT22;5026;51.494;11.974;2023-06-26T16:56:57;26.30;81.20
9971;DHT22;5026;51.494;11.974;2023-06-26T16:59:26;26.40;80.50
9971;DHT22;5026;51.494;11.974;2023-06-26T17:01:53;26.10;80.60
9971;DHT22;5026;51.494;11.974;2023-06-26T17:04:22;26.20;81.00
9971;DHT22;5026;51.494;11.974;2023-06-26T17:09:17;26.20;81.10
9971;DHT22;5026;51.494;11.974;2023-06-26T17:14:12;26.00;81.30
9971;DHT22;5026;51.494;11.974;2023-06-26T17:16:39;25.90;81.60
9971;DHT22;5026;51.494;11.974;2023-06-26T17:19:06;25.80;81.20
9971;DHT22;5026;51.494;11.974;2023-06-26T17:21:35;25.80;81.00
9971;DHT22;5026;51.494;11.974;2023-06-26T17:24:03;25.60;81.20
9971;DHT22;5026;51.494;11.974;2023-06-26T17:26:32;25.70;81.40
9971;DHT22;5026;51.494;11.974;2023-06-26T17:31:27;25.60;81.30
9971;DHT22;5026;51.494;11.974;2023-06-26T17:33:56;25.60;81.30
9971;DHT22;5026;51.494;11.974;2023-06-26T17:36:23;25.50;81.70
9971;DHT22;5026;51.494;11.974;2023-06-26T17:38:50;25.30;81.60
9971;DHT22;5026;51.494;11.974;2023-06-26T17:41:18;25.30;81.70
9971;DHT22;5026;51.494;11.974;2023-06-26T17:43:47;25.20;81.60
9971;DHT22;5026;51.494;11.974;2023-06-26T17:46:14;25.00;81.70
9971;DHT22;5026;51.494;11.974;2023-06-26T17:48:41;25.00;81.50
9971;DHT22;5026;51.494;11.974;2023-06-26T17:51:08;24.90;80.70
9971;DHT22;5026;51.494;11.974;2023-06-26T17:53:35;24.90;80.20
9971;DHT22;5026;51.494;11.974;2023-06-26T17:56:05;24.80;79.20
9971;DHT22;5026;51.494;11.974;2023-06-26T17:58:32;24.70;79.00
9971;DHT22;5026;51.494;11.974;2023-06-26T18:01:01;24.70;79.10
9971;DHT22;5026;51.494;11.974;2023-06-26T18:03:28;24.70;78.90
9971;DHT22;5026;51.494;11.974;2023-06-26T18:05:55;24.60;79.00
9971;DHT22;5026;51.494;11.974;2023-06-26T18:08:22;24.60;78.90
9971;DHT22;5026;51.494;11.974;2023-06-26T18:10:49;24.60;78.80
9971;DHT22;5026;51.494;11.974;2023-06-26T18:13:18;24.60;78.60
9971;DHT22;5026;51.494;11.974;2023-06-26T18:15:45;24.60;78.50
9971;DHT22;5026;51.494;11.974;2023-06-26T18:18:14;24.50;78.60
9971;DHT22;5026;51.494;11.974;2023-06-26T18:23:08;24.50;78.70
9971;DHT22;5026;51.494;11.974;2023-06-26T18:25:35;24.40;78.60
9971;DHT22;5026;51.494;11.974;2023-06-26T18:28:02;24.30;78.90
9971;DHT22;5026;51.494;11.974;2023-06-26T18:30:30;24.30;79.50
9971;DHT22;5026;51.494;11.974;2023-06-26T18:32:56;24.30;79.40
9971;DHT22;5026;51.494;11.974;2023-06-26T18:35:26;24.20;79.40
9971;DHT22;5026;51.494;11.974;2023-06-26T18:37:53;24.20;79.70
9971;DHT22;5026;51.494;11.974;2023-06-26T18:40:20;24.10;79.90
9971;DHT22;5026;51.494;11.974;2023-06-26T18:42:47;24.00;79.90
9971;DHT22;5026;51.494;11.974;2023-06-26T18:45:16;24.00;80.00
9971;DHT22;5026;51.494;11.974;2023-06-26T18:47:43;24.00;80.20
9971;DHT22;5026;51.494;11.974;2023-06-26T18:50:11;24.00;80.50
9971;DHT22;5026;51.494;11.974;2023-06-26T18:52:39;24.00;80.60
9971;DHT22;5026;51.494;11.974;2023-06-26T18:55:07;23.80;80.30
9971;DHT22;5026;51.494;11.974;2023-06-26T18:57:34;23.70;80.50
9971;DHT22;5026;51.494;11.974;2023-06-26T19:00:02;23.70;80.50
9971;DHT22;5026;51.494;11.974;2023-06-26T19:02:31;23.50;80.50
9971;DHT22;5026;51.494;11.974;2023-06-26T19:04:59;23.40;80.70
9971;DHT22;5026;51.494;11.974;2023-06-26T19:07:26;23.30;81.00
9971;DHT22;5026;51.494;11.974;2023-06-26T19:09:54;23.30;81.30
9971;DHT22;5026;51.494;11.974;2023-06-26T19:12:21;23.10;81.40
9971;DHT22;5026;51.494;11.974;2023-06-26T19:14:49;23.10;81.90
9971;DHT22;5026;51.494;11.974;2023-06-26T19:19:44;22.90;82.20
9971;DHT22;5026;51.494;11.974;2023-06-26T19:22:11;22.90;82.90
9971;DHT22;5026;51.494;11.974;2023-06-26T19:24:38;22.90;82.80
9971;DHT22;5026;51.494;11.974;2023-06-26T19:27:06;22.80;82.80
9971;DHT22;5026;51.494;11.974;2023-06-26T19:29:34;22.80;82.90
9971;DHT22;5026;51.494;11.974;2023-06-26T19:32:04;22.80;82.70
9971;DHT22;5026;51.494;11.974;2023-06-26T19:34:32;22.70;82.70
9971;DHT22;5026;51.494;11.974;2023-06-26T19:36:58;22.70;82.50
9971;DHT22;5026;51.494;11.974;2023-06-26T19:39:25;22.70;82.50
9971;DHT22;5026;51.494;11.974;2023-06-26T19:41:52;22.50;82.00
9971;DHT22;5026;51.494;11.974;2023-06-26T19:44:21;22.40;82.30
9971;DHT22;5026;51.494;11.974;2023-06-26T19:46:51;22.50;82.50
9971;DHT22;5026;51.494;11.974;2023-06-26T19:49:18;22.50;82.50
9971;DHT22;5026;51.494;11.974;2023-06-26T19:51:45;22.60;82.40
9971;DHT22;5026;51.494;11.974;2023-06-26T19:54:12;22.60;82.50
9971;DHT22;5026;51.494;11.974;2023-06-26T19:59:07;22.50;82.30
9971;DHT22;5026;51.494;11.974;2023-06-26T20:01:36;22.50;82.60
9971;DHT22;5026;51.494;11.974;2023-06-26T20:04:03;22.50;82.50
9971;DHT22;5026;51.494;11.974;2023-06-26T20:06:35;22.50;82.60
9971;DHT22;5026;51.494;11.974;2023-06-26T20:09:03;22.50;82.60
9971;DHT22;5026;51.494;11.974;2023-06-26T20:11:30;22.40;82.80
9971;DHT22;5026;51.494;11.974;2023-06-26T20:13:57;22.40;82.90
9971;DHT22;5026;51.494;11.974;2023-06-26T20:16:24;22.50;83.00
9971;DHT22;5026;51.494;11.974;2023-06-26T20:18:52;22.30;83.00
9971;DHT22;5026;51.494;11.974;2023-06-26T20:21:19;22.40;83.40
9971;DHT22;5026;51.494;11.974;2023-06-26T20:26:13;22.40;83.60
9971;DHT22;5026;51.494;11.974;2023-06-26T20:28:41;22.40;83.70
9971;DHT22;5026;51.494;11.974;2023-06-26T20:31:08;22.40;83.70
9971;DHT22;5026;51.494;11.974;2023-06-26T20:33:36;22.30;84.00
9971;DHT22;5026;51.494;11.974;2023-06-26T20:36:04;22.30;83.80
9971;DHT22;5026;51.494;11.974;2023-06-26T20:38:31;22.20;83.90
9971;DHT22;5026;51.494;11.974;2023-06-26T20:40:59;22.10;84.00
9971;DHT22;5026;51.494;11.974;2023-06-26T20:43:27;22.00;84.30
9971;DHT22;5026;51.494;11.974;2023-06-26T20:45:54;22.00;84.50
9971;DHT22;5026;51.494;11.974;2023-06-26T20:48:22;22.00;84.70
9971;DHT22;5026;51.494;11.974;2023-06-26T20:50:49;21.90;85.00
9971;DHT22;5026;51.494;11.974;2023-06-26T20:53:19;21.70;85.40
9971;DHT22;5026;51.494;11.974;2023-06-26T20:55:46;21.80;86.00
9971;DHT22;5026;51.494;11.974;2023-06-26T20:58:13;21.70;86.30
9971;DHT22;5026;51.494;11.974;2023-06-26T21:00:40;21.70;86.60
9971;DHT22;5026;51.494;11.974;2023-06-26T21:03:07;21.80;86.70
9971;DHT22;5026;51.494;11.974;2023-06-26T21:05:34;21.60;86.90
9971;DHT22;5026;51.494;11.974;2023-06-26T21:08:01;21.60;87.20
9971;DHT22;5026;51.494;11.974;2023-06-26T21:10:29;21.60;87.00
9971;DHT22;5026;51.494;11.974;2023-06-26T21:12:56;21.50;87.30
9971;DHT22;5026;51.494;11.974;2023-06-26T21:15:23;21.40;87.10
9971;DHT22;5026;51.494;11.974;2023-06-26T21:17:50;21.40;87.50
9971;DHT22;5026;51.494;11.974;2023-06-26T21:20:17;21.50;87.40
9971;DHT22;5026;51.494;11.974;2023-06-26T21:22:44;21.40;87.40
9971;DHT22;5026;51.494;11.974;2023-06-26T21:25:11;21.50;87.50
9971;DHT22;5026;51.494;11.974;2023-06-26T21:27:39;21.50;87.30
9971;DHT22;5026;51.494;11.974;2023-06-26T21:30:07;21.50;87.30
9971;DHT22;5026;51.494;11.974;2023-06-26T21:35:01;21.50;87.30
9971;DHT22;5026;51.494;11.974;2023-06-26T21:37:29;21.40;87.50
9971;DHT22;5026;51.494;11.974;2023-06-26T21:39:56;21.40;87.60
9971;DHT22;5026;51.494;11.974;2023-06-26T21:42:23;21.30;87.80
9971;DHT22;5026;51.494;11.974;2023-06-26T21:44:51;21.40;88.00
9971;DHT22;5026;51.494;11.974;2023-06-26T21:47:18;21.40;88.00
9971;DHT22;5026;51.494;11.974;2023-06-26T21:49:45;21.30;88.00
9971;DHT22;5026;51.494;11.974;2023-06-26T21:52:12;21.20;88.40
9971;DHT22;5026;51.494;11.974;2023-06-26T21:54:39;21.10;88.60
9971;DHT22;5026;51.494;11.974;2023-06-26T21:57:06;21.10;88.80
9971;DHT22;5026;51.494;11.974;2023-06-26T21:59:33;21.00;89.00
9971;DHT22;5026;51.494;11.974;2023-06-26T22:02:01;21.00;89.00
9971;DHT22;5026;51.494;11.974;2023-06-26T22:04:29;20.90;89.10
9971;DHT22;5026;51.494;11.974;2023-06-26T22:06:56;20.90;89.20
9971;DHT22;5026;51.494;11.974;2023-06-26T22:09:23;20.70;89.20
9971;DHT22;5026;51.494;11.974;2023-06-26T22:14:17;19.90;88.90
9971;DHT22;5026;51.494;11.974;2023-06-26T22:19:13;20.70;89.60
9971;DHT22;5026;51.494;11.974;2023-06-26T22:21:39;20.60;89.60
9971;DHT22;5026;51.494;11.974;2023-06-26T22:24:07;20.50;89.30
9971;DHT22;5026;51.494;11.974;2023-06-26T22:26:34;20.50;89.20
9971;DHT22;5026;51.494;11.974;2023-06-26T22:29:01;20.50;89.30
9971;DHT22;5026;51.494;11.974;2023-06-26T22:31:28;20.50;89.50
9971;DHT22;5026;51.494;11.974;2023-06-26T22:36:24;20.40;89.20
9971;DHT22;5026;51.494;11.974;2023-06-26T22:38:52;20.40;89.00
9971;DHT22;5026;51.494;11.974;2023-06-26T22:41:19;20.40;89.20
9971;DHT22;5026;51.494;11.974;2023-06-26T22:43:46;20.40;89.40
9971;DHT22;5026;51.494;11.974;2023-06-26T22:46:13;20.40;89.70
9971;DHT22;5026;51.494;11.974;2023-06-26T22:48:40;20.30;90.00
9971;DHT22;5026;51.494;11.974;2023-06-26T22:51:08;20.30;90.30
9971;DHT22;5026;51.494;11.974;2023-06-26T22:53:36;20.30;90.50
9971;DHT22;5026;51.494;11.974;2023-06-26T22:56:04;20.30;90.90
9971;DHT22;5026;51.494;11.974;2023-06-26T22:58:31;20.30;91.20
9971;DHT22;5026;51.494;11.974;2023-06-26T23:05:53;20.30;92.00